Time;durP1;ratioP1;P1;durP2;ratioP2;P2;SDS_P1;SDS_P2;PMS_P1;PMS_P2;Temp;Humidity;BMP_temperature;BMP_pressure;BME280_temperature;BME280_humidity;BME280_pressure;Samples;Min_cycle;Max_cycle;Signal;HPM_P1;HPM_P2
2022/11/24 00:00:39;;;;;;;10.43;4.80;;;11.50;70.00;;;;;;6086490;29;20061;-66
2022/11/24 00:03:41;;;;;;;13.65;4.95;;;11.40;70.10;;;;;;6081633;29;20450;-64
2022/11/24 00:06:41;;;;;;;12.18;4.72;;;11.40;70.20;;;;;;6087360;29;20052;-64
2022/11/24 00:09:42;;;;;;;9.45;5.05;;;11.40;70.40;;;;;;6091446;29;20041;-64
2022/11/24 00:12:43;;;;;;;12.82;5.53;;;11.40;70.40;;;;;;6085620;29;20056;-64
2022/11/24 00:15:44;;;;;;;13.93;6.00;;;11.40;70.30;;;;;;6097175;29;20048;-64
2022/11/24 00:18:47;;;;;;;12.25;4.75;;;11.50;70.40;;;;;;6098054;29;20051;-64
2022/11/24 00:21:48;;;;;;;13.60;5.65;;;11.40;70.30;;;;;;6093806;29;20036;-64
2022/11/24 00:24:49;;;;;;;12.68;6.15;;;11.50;70.30;;;;;;6091384;29;20373;-63
2022/11/24 00:27:51;;;;;;;13.90;6.18;;;11.40;70.30;;;;;;6093408;29;20481;-63
2022/11/24 00:30:52;;;;;;;9.85;6.00;;;11.40;70.20;;;;;;6102024;29;20042;-64
2022/11/24 00:33:55;;;;;;;13.05;5.88;;;11.40;70.30;;;;;;6093986;29;20095;-64
2022/11/24 00:36:56;;;;;;;9.77;5.53;;;11.50;70.40;;;;;;6096485;29;20044;-63
2022/11/24 00:39:57;;;;;;;16.63;6.70;;;11.40;71.10;;;;;;6097284;29;20045;-64
2022/11/24 00:42:59;;;;;;;16.90;6.95;;;11.40;70.40;;;;;;6090312;29;20040;-64
2022/11/24 00:46:00;;;;;;;13.70;6.07;;;11.30;70.40;;;;;;6091626;29;20147;-64
2022/11/24 00:49:00;;;;;;;16.33;5.80;;;11.30;70.60;;;;;;6105496;29;20044;-63
2022/11/24 00:52:01;;;;;;;12.25;6.28;;;11.30;70.60;;;;;;6093562;29;20199;-64
2022/11/24 00:55:02;;;;;;;11.85;5.93;;;11.30;70.70;;;;;;6097385;29;20111;-64
2022/11/24 00:58:03;;;;;;;10.77;6.47;;;11.20;70.70;;;;;;6098461;29;20515;-64
2022/11/24 01:01:10;;;;;;;14.52;7.65;;;11.30;70.80;;;;;;6102202;29;20040;-64
2022/11/24 01:04:11;;;;;;;16.08;7.32;;;11.20;70.80;;;;;;6096462;29;20037;-64
2022/11/24 01:07:12;;;;;;;15.13;7.55;;;11.30;70.80;;;;;;6106518;29;20429;-64
2022/11/24 01:10:13;;;;;;;14.32;7.18;;;11.30;70.80;;;;;;6094935;29;20043;-63
2022/11/24 01:13:14;;;;;;;16.35;6.93;;;11.30;70.80;;;;;;6093761;29;20119;-64
2022/11/24 01:16:20;;;;;;;15.55;7.93;;;11.40;70.70;;;;;;6097437;29;20710;-63
2022/11/24 01:19:21;;;;;;;13.35;7.43;;;11.40;70.60;;;;;;6098126;29;20128;-65
2022/11/24 01:22:23;;;;;;;14.60;8.02;;;11.40;70.60;;;;;;6094585;29;20038;-65
2022/11/24 01:25:24;;;;;;;17.77;7.72;;;11.40;70.50;;;;;;6106234;29;20044;-64
2022/11/24 01:28:25;;;;;;;13.45;6.53;;;11.50;70.60;;;;;;6096850;29;20135;-65
2022/11/24 01:31:26;;;;;;;17.35;7.85;;;11.50;70.50;;;;;;6093635;29;20051;-65
2022/11/24 01:34:27;;;;;;;16.23;6.47;;;11.50;70.50;;;;;;6110258;29;20033;-64
2022/11/24 01:37:28;;;;;;;18.00;7.20;;;11.40;70.40;;;;;;6108558;29;20514;-64
2022/11/24 01:40:29;;;;;;;16.00;8.13;;;11.40;70.30;;;;;;6113634;29;20044;-64
2022/11/24 01:43:30;;;;;;;13.57;8.02;;;11.30;70.30;;;;;;6086187;29;20055;-64
2022/11/24 01:46:40;;;;;;;13.88;6.85;;;11.20;70.50;;;;;;6100314;29;20575;-64
2022/11/24 01:49:47;;;;;;;16.42;6.93;;;11.20;70.70;;;;;;6108835;29;20040;-64
2022/11/24 01:52:54;;;;;;;13.15;6.78;;;11.10;70.60;;;;;;6101960;29;20461;-64
2022/11/24 01:55:54;;;;;;;14.80;6.85;;;11.00;70.60;;;;;;6094563;29;20335;-64
2022/11/24 01:58:59;;;;;;;10.40;5.72;;;11.00;70.50;;;;;;6093302;29;20134;-64
2022/11/24 02:02:00;;;;;;;11.98;6.13;;;10.90;70.50;;;;;;6090463;29;20393;-64
2022/11/24 02:05:11;;;;;;;17.95;7.30;;;10.90;70.70;;;;;;6098457;29;20040;-64
2022/11/24 02:08:39;;;;;;;14.27;7.43;;;10.80;70.90;;;;;;6095474;29;20536;-64
2022/11/24 02:11:41;;;;;;;18.35;8.05;;;10.80;71.10;;;;;;6106834;29;20063;-64
2022/11/24 02:14:43;;;;;;;15.38;7.35;;;10.80;71.10;;;;;;6096364;29;20099;-64
2022/11/24 02:17:44;;;;;;;16.35;8.45;;;10.80;71.00;;;;;;6108581;29;20054;-64
2022/11/24 02:20:45;;;;;;;22.92;8.43;;;10.80;71.00;;;;;;6101173;29;20033;-63
2022/11/24 02:23:53;;;;;;;16.83;7.57;;;10.70;71.10;;;;;;6101884;29;20783;-63
2022/11/24 02:26:53;;;;;;;20.70;9.00;;;10.70;71.20;;;;;;6096491;29;20505;-63
2022/11/24 02:29:54;;;;;;;16.40;7.70;;;10.70;71.00;;;;;;6093485;29;20036;-63
2022/11/24 02:32:56;;;;;;;18.58;8.35;;;10.70;71.00;;;;;;6096995;29;20113;-64
2022/11/24 02:35:56;;;;;;;18.50;8.25;;;10.70;71.00;;;;;;6106314;29;20052;-64
2022/11/24 02:38:57;;;;;;;20.08;8.05;;;10.80;71.10;;;;;;6111704;29;20040;-63
2022/11/24 02:42:03;;;;;;;13.30;7.30;;;10.80;71.10;;;;;;6097156;29;20085;-63
2022/11/24 02:45:05;;;;;;;15.77;8.23;;;10.80;71.20;;;;;;6084252;29;20044;-64
2022/11/24 02:48:06;;;;;;;12.20;6.57;;;10.80;71.10;;;;;;6086541;29;20036;-63
2022/11/24 02:51:07;;;;;;;13.02;6.85;;;10.90;71.10;;;;;;6109908;29;20125;-64
2022/11/24 02:54:08;;;;;;;15.55;6.88;;;10.90;70.90;;;;;;6108459;29;20477;-64
2022/11/24 02:57:09;;;;;;;14.63;6.07;;;10.90;70.80;;;;;;6094040;29;20036;-64
2022/11/24 03:00:11;;;;;;;13.40;6.70;;;10.90;70.70;;;;;;6104143;29;20104;-63
2022/11/24 03:03:12;;;;;;;15.45;7.68;;;10.90;70.80;;;;;;6095353;29;20717;-63
2022/11/24 03:06:12;;;;;;;12.15;6.13;;;10.80;70.70;;;;;;6111275;29;20060;-64
2022/11/24 03:09:13;;;;;;;12.88;6.72;;;10.90;70.80;;;;;;6099981;29;20074;-63
2022/11/24 03:12:14;;;;;;;16.25;6.82;;;10.80;70.60;;;;;;6076637;29;20423;-63
2022/11/24 03:15:15;;;;;;;11.90;6.40;;;10.80;70.60;;;;;;6108003;29;20032;-63
2022/11/24 03:18:16;;;;;;;14.90;6.22;;;10.80;70.60;;;;;;6100444;29;20370;-63
2022/11/24 03:21:17;;;;;;;11.32;6.22;;;10.80;70.70;;;;;;6093700;29;20047;-64
2022/11/24 03:24:18;;;;;;;15.05;6.47;;;10.80;70.60;;;;;;6082825;28;20051;-63
2022/11/24 03:27:19;;;;;;;18.13;6.88;;;10.70;70.50;;;;;;6098807;29;20437;-65
2022/11/24 03:30:20;;;;;;;17.02;7.38;;;10.70;70.60;;;;;;6091221;29;20131;-64
2022/11/24 03:33:21;;;;;;;18.10;6.72;;;10.70;70.60;;;;;;6096210;29;20040;-64
2022/11/24 03:36:22;;;;;;;17.35;8.32;;;10.70;71.50;;;;;;6096726;29;20536;-64
2022/11/24 03:39:23;;;;;;;23.95;8.85;;;10.60;70.70;;;;;;6092045;29;20062;-64
2022/11/24 03:42:23;;;;;;;18.98;8.27;;;10.70;70.80;;;;;;6087579;29;20487;-64
2022/11/24 03:45:24;;;;;;;20.23;7.55;;;10.70;70.70;;;;;;6096566;29;20373;-64
2022/11/24 03:48:25;;;;;;;23.23;8.50;;;10.60;70.60;;;;;;6088304;29;20040;-63
2022/11/24 03:51:26;;;;;;;35.42;8.65;;;10.60;70.60;;;;;;6084009;29;20505;-63
2022/11/24 03:54:27;;;;;;;24.33;9.45;;;10.50;70.60;;;;;;6094119;29;20087;-63
2022/11/24 03:57:28;;;;;;;20.10;8.95;;;10.50;70.70;;;;;;6094138;29;20131;-63
2022/11/24 04:00:28;;;;;;;19.75;8.77;;;10.40;70.90;;;;;;6085722;29;20044;-64
2022/11/24 04:03:29;;;;;;;30.73;9.25;;;10.40;71.00;;;;;;6097122;29;20128;-64
2022/11/24 04:06:30;;;;;;;20.23;8.15;;;10.40;71.20;;;;;;6099359;29;20046;-65
2022/11/24 04:09:31;;;;;;;22.23;8.38;;;10.30;71.30;;;;;;6099247;29;20116;-62
2022/11/24 04:12:44;;;;;;;17.45;7.95;;;10.30;71.50;;;;;;6100768;29;20032;-63
2022/11/24 04:15:45;;;;;;;20.00;8.23;;;10.30;71.70;;;;;;6101240;29;20548;-63
2022/11/24 04:18:46;;;;;;;20.33;7.97;;;10.20;71.80;;;;;;6101192;29;20043;-63
2022/11/24 04:21:47;;;;;;;23.65;7.85;;;10.20;71.90;;;;;;6102484;29;20036;-65
2022/11/24 04:24:48;;;;;;;16.40;7.68;;;10.20;72.00;;;;;;6104936;29;20123;-64
2022/11/24 04:27:53;;;;;;;16.60;8.23;;;10.20;72.00;;;;;;6106594;29;20052;-64
2022/11/24 04:30:54;;;;;;;16.27;7.88;;;10.20;72.20;;;;;;6105914;29;20366;-64
2022/11/24 04:33:54;;;;;;;16.40;8.10;;;10.20;72.40;;;;;;6106848;29;20103;-64
2022/11/24 04:36:55;;;;;;;17.52;8.27;;;10.20;72.50;;;;;;6106650;29;20202;-64
2022/11/24 04:39:56;;;;;;;17.80;7.43;;;10.30;72.50;;;;;;6103525;29;20342;-64
2022/11/24 04:42:57;;;;;;;19.98;8.50;;;10.40;72.40;;;;;;6091484;29;20055;-64
2022/11/24 04:46:01;;;;;;;17.08;7.60;;;10.50;72.10;;;;;;6105321;29;20040;-64
2022/11/24 04:49:02;;;;;;;16.98;8.05;;;10.50;71.90;;;;;;6104573;29;20068;-64
2022/11/24 04:52:03;;;;;;;19.05;7.18;;;10.50;71.80;;;;;;6104737;29;20040;-64
2022/11/24 04:55:04;;;;;;;18.58;7.93;;;10.50;71.80;;;;;;6103599;29;20112;-64
2022/11/24 04:58:09;;;;;;;14.10;7.10;;;10.60;71.90;;;;;;6103094;29;20039;-64
2022/11/24 05:01:10;;;;;;;18.67;6.93;;;10.60;71.70;;;;;;6087173;29;20037;-64
2022/11/24 05:04:13;;;;;;;18.42;7.13;;;10.60;71.50;;;;;;6103318;29;20077;-64
2022/11/24 05:07:15;;;;;;;19.92;8.65;;;10.60;71.50;;;;;;6102936;29;20036;-64
2022/11/24 05:10:35;;;;;;;18.10;7.65;;;10.60;72.30;;;;;;6104836;29;20097;-64
2022/11/24 05:13:35;;;;;;;14.50;7.22;;;10.50;71.40;;;;;;6102721;29;20036;-64
2022/11/24 05:16:36;;;;;;;18.90;7.72;;;10.50;71.30;;;;;;6102840;29;20055;-64
2022/11/24 05:19:37;;;;;;;27.05;8.40;;;10.40;71.40;;;;;;6104544;29;20040;-64
2022/11/24 05:22:38;;;;;;;33.78;8.63;;;10.40;71.40;;;;;;6103870;29;20186;-64
2022/11/24 05:25:39;;;;;;;21.95;7.63;;;10.30;71.60;;;;;;6104262;29;20056;-64
2022/11/24 05:28:40;;;;;;;18.85;7.22;;;10.40;71.80;;;;;;6110315;29;20054;-64
2022/11/24 05:31:41;;;;;;;20.60;8.10;;;10.40;71.80;;;;;;6109255;29;20040;-64
2022/11/24 05:34:42;;;;;;;15.13;6.65;;;10.40;72.60;;;;;;6102248;29;20036;-63
2022/11/24 05:37:43;;;;;;;20.73;7.47;;;10.40;71.80;;;;;;6102233;29;20529;-64
2022/11/24 05:40:44;;;;;;;26.30;7.18;;;10.40;71.90;;;;;;6100611;29;20040;-63
2022/11/24 05:43:45;;;;;;;24.63;8.02;;;10.30;71.80;;;;;;6093797;29;20112;-63
2022/11/24 05:46:46;;;;;;;19.45;8.65;;;10.40;72.00;;;;;;6121092;28;20556;-64
2022/11/24 05:49:47;;;;;;;28.95;9.85;;;10.40;72.00;;;;;;6101180;29;20055;-63
2022/11/24 05:52:49;;;;;;;26.77;9.55;;;10.40;72.10;;;;;;6094096;29;20047;-64
2022/11/24 05:55:49;;;;;;;31.20;9.48;;;10.50;72.10;;;;;;6092414;29;20036;-64
2022/11/24 05:58:50;;;;;;;36.58;9.30;;;10.50;72.10;;;;;;6099674;29;20036;-65
2022/11/24 06:01:51;;;;;;;28.08;9.27;;;10.50;72.00;;;;;;6092282;29;20108;-64
2022/11/24 06:04:52;;;;;;;28.50;9.15;;;10.60;72.10;;;;;;6100841;29;20055;-65
2022/11/24 06:07:54;;;;;;;28.05;11.13;;;10.60;72.10;;;;;;6101600;29;20032;-63
2022/11/24 06:11:16;;;;;;;17.83;7.38;;;10.60;72.00;;;;;;6102894;29;20039;-64
2022/11/24 06:14:17;;;;;;;26.60;10.00;;;10.70;72.00;;;;;;6063502;29;20127;-65
2022/11/24 06:17:18;;;;;;;20.85;7.07;;;10.70;71.90;;;;;;6091292;29;20070;-63
2022/11/24 06:20:19;;;;;;;20.95;7.90;;;10.70;71.90;;;;;;6090765;29;20119;-65
2022/11/24 06:23:20;;;;;;;21.13;8.38;;;10.70;71.60;;;;;;6114765;29;20044;-63
2022/11/24 06:26:21;;;;;;;19.92;8.15;;;10.70;71.30;;;;;;6084873;29;20056;-63
2022/11/24 06:29:21;;;;;;;22.30;8.27;;;10.70;71.40;;;;;;6106987;29;20055;-63
2022/11/24 06:32:23;;;;;;;16.50;6.50;;;10.60;71.40;;;;;;6108856;29;20047;-63
2022/11/24 06:35:24;;;;;;;19.90;7.10;;;10.60;71.40;;;;;;6117829;29;20126;-63
2022/11/24 06:38:24;;;;;;;17.10;6.68;;;10.60;71.30;;;;;;6083224;29;20377;-63
2022/11/24 06:41:25;;;;;;;21.13;7.88;;;10.50;71.20;;;;;;6095113;29;20035;-63
2022/11/24 06:44:26;;;;;;;21.67;8.05;;;10.50;71.10;;;;;;6093195;29;20083;-64
2022/11/24 06:47:27;;;;;;;17.70;7.80;;;10.50;71.30;;;;;;6097977;29;20039;-65
2022/11/24 06:50:28;;;;;;;15.52;6.93;;;10.50;71.50;;;;;;6089228;29;20039;-64
2022/11/24 06:53:30;;;;;;;19.85;7.18;;;10.40;71.50;;;;;;6094787;29;20127;-64
2022/11/24 06:56:31;;;;;;;20.45;6.45;;;10.40;71.40;;;;;;6096396;29;20036;-64
2022/11/24 06:59:32;;;;;;;15.77;5.80;;;10.30;71.50;;;;;;6098048;29;20068;-63
2022/11/24 07:02:33;;;;;;;22.00;8.27;;;10.30;71.60;;;;;;6100447;29;20042;-64
2022/11/24 07:05:34;;;;;;;30.42;10.00;;;10.20;71.70;;;;;;6100662;29;20465;-64
2022/11/24 07:08:35;;;;;;;27.20;9.15;;;10.20;71.80;;;;;;6100016;29;20107;-64
2022/11/24 07:11:36;;;;;;;24.85;8.60;;;10.10;72.00;;;;;;6100331;29;20032;-64
2022/11/24 07:14:37;;;;;;;21.73;7.82;;;10.10;72.10;;;;;;6100765;29;20031;-63
2022/11/24 07:17:39;;;;;;;16.08;6.53;;;10.10;72.10;;;;;;6100611;29;20047;-63
2022/11/24 07:20:40;;;;;;;12.90;5.45;;;10.10;72.10;;;;;;6100430;29;20044;-63
2022/11/24 07:23:41;;;;;;;18.88;7.63;;;10.10;72.10;;;;;;6099592;29;20059;-63
2022/11/24 07:26:42;;;;;;;14.93;6.47;;;10.10;72.20;;;;;;6099792;29;20357;-64
2022/11/24 07:29:43;;;;;;;17.42;6.43;;;10.10;72.40;;;;;;6100205;29;20036;-63
2022/11/24 07:32:44;;;;;;;14.80;6.25;;;10.20;72.70;;;;;;6099920;29;20073;-63
2022/11/24 07:35:45;;;;;;;23.90;7.47;;;10.30;72.60;;;;;;6101018;29;20405;-63
2022/11/24 07:38:47;;;;;;;17.85;7.00;;;10.40;72.30;;;;;;6098611;29;20067;-64
2022/11/24 07:41:48;;;;;;;14.52;6.65;;;10.50;72.00;;;;;;6099885;29;20040;-64
2022/11/24 07:44:48;;;;;;;14.82;5.80;;;10.60;72.80;;;;;;6097847;29;20044;-64
2022/11/24 07:47:49;;;;;;;15.10;6.22;;;10.60;71.80;;;;;;6096827;29;20104;-65
2022/11/24 07:50:50;;;;;;;14.75;6.25;;;10.80;71.60;;;;;;6097579;29;20028;-63
2022/11/24 07:53:51;;;;;;;18.05;7.25;;;10.80;71.40;;;;;;6097125;29;20033;-64
2022/11/24 07:56:52;;;;;;;20.45;8.00;;;10.90;71.10;;;;;;6096245;29;20330;-64
2022/11/24 07:59:52;;;;;;;19.85;6.95;;;10.90;70.80;;;;;;6100319;29;20051;-64
2022/11/24 08:02:55;;;;;;;14.40;6.35;;;10.90;70.70;;;;;;6100529;29;20024;-64
2022/11/24 08:05:57;;;;;;;18.50;6.88;;;10.80;70.50;;;;;;6115438;29;20068;-63
2022/11/24 08:08:58;;;;;;;22.08;8.98;;;10.80;70.60;;;;;;6100678;29;20453;-63
2022/11/24 08:11:59;;;;;;;17.08;7.85;;;10.80;70.70;;;;;;6099009;29;20135;-65
2022/11/24 08:15:00;;;;;;;17.20;6.53;;;10.90;70.80;;;;;;6115098;29;20043;-64
2022/11/24 08:18:01;;;;;;;18.88;7.65;;;11.00;70.70;;;;;;6099192;29;20028;-63
2022/11/24 08:21:03;;;;;;;21.33;7.07;;;11.00;71.30;;;;;;6098612;29;20056;-63
2022/11/24 08:24:04;;;;;;;21.55;8.77;;;11.00;70.40;;;;;;6097199;29;20028;-64
2022/11/24 08:27:05;;;;;;;17.85;7.20;;;11.00;70.30;;;;;;6103326;29;20043;-64
2022/11/24 08:30:07;;;;;;;15.43;6.80;;;11.00;70.10;;;;;;6113433;29;20036;-64
2022/11/24 08:33:07;;;;;;;17.60;7.68;;;11.10;70.30;;;;;;6097485;29;20032;-64
2022/11/24 08:36:14;;;;;;;19.05;8.77;;;11.10;70.40;;;;;;6089549;29;20108;-65
2022/11/24 08:39:15;;;;;;;22.60;7.45;;;11.30;70.50;;;;;;6077871;29;20148;-64
2022/11/24 08:42:16;;;;;;;23.38;7.68;;;11.40;70.30;;;;;;6093183;29;20041;-64
2022/11/24 08:45:17;;;;;;;16.42;8.32;;;11.60;70.10;;;;;;6095602;29;20381;-63
2022/11/24 08:48:18;;;;;;;17.27;7.35;;;11.70;69.90;;;;;;6100237;29;20040;-63
2022/11/24 08:51:23;;;;;;;19.55;7.68;;;11.80;69.70;;;;;;6100737;29;20109;-64
2022/11/24 08:54:25;;;;;;;20.73;8.50;;;11.90;70.30;;;;;;6081784;29;20153;-64
2022/11/24 08:57:25;;;;;;;15.63;7.25;;;12.10;69.30;;;;;;6097713;29;20421;-64
2022/11/24 09:00:26;;;;;;;21.60;7.30;;;12.20;69.80;;;;;;6082375;29;20075;-63
2022/11/24 09:03:28;;;;;;;18.85;7.32;;;12.30;68.50;;;;;;6097896;29;20040;-64
2022/11/24 09:06:29;;;;;;;14.40;7.03;;;12.50;68.10;;;;;;6098009;29;20048;-64
2022/11/24 09:09:30;;;;;;;16.48;7.60;;;12.50;67.70;;;;;;6102652;29;20119;-63
2022/11/24 09:12:31;;;;;;;17.10;7.70;;;12.60;67.50;;;;;;6088290;29;20142;-64
2022/11/24 09:15:34;;;;;;;15.27;6.68;;;12.70;67.20;;;;;;6104085;29;20111;-64
2022/11/24 09:18:35;;;;;;;17.40;6.72;;;12.70;66.90;;;;;;6105554;29;20067;-64
2022/11/24 09:21:39;;;;;;;17.10;5.50;;;12.80;66.50;;;;;;6104097;29;20434;-63
2022/11/24 09:24:40;;;;;;;13.27;5.47;;;12.70;65.90;;;;;;6102096;29;20074;-64
2022/11/24 09:27:41;;;;;;;14.57;5.72;;;12.70;65.70;;;;;;6103811;29;20051;-65
2022/11/24 09:30:42;;;;;;;13.25;5.70;;;12.70;65.70;;;;;;6102029;29;20024;-64
2022/11/24 09:33:44;;;;;;;8.80;5.03;;;12.70;65.80;;;;;;6101373;29;20036;-64
2022/11/24 09:36:45;;;;;;;13.45;5.88;;;12.70;65.50;;;;;;6101650;29;20086;-64
2022/11/24 09:39:46;;;;;;;15.40;7.03;;;12.70;65.30;;;;;;6101794;29;20087;-65
2022/11/24 09:43:10;;;;;;;13.57;5.85;;;12.70;65.10;;;;;;6086152;29;20546;-66
2022/11/24 09:46:32;;;;;;;11.23;5.35;;;12.70;65.30;;;;;;6084349;29;20076;-64
2022/11/24 09:49:47;;;;;;;18.35;5.40;;;12.70;64.80;;;;;;6098802;29;20048;-64
2022/11/24 09:53:08;;;;;;;14.88;5.10;;;12.70;64.30;;;;;;6100662;29;20044;-65
2022/11/24 09:56:27;;;;;;;10.90;5.03;;;12.70;64.20;;;;;;6097317;29;20033;-63
2022/11/24 09:59:28;;;;;;;11.50;5.25;;;12.70;64.20;;;;;;6098557;29;20050;-63
2022/11/24 10:02:29;;;;;;;13.20;6.00;;;12.60;64.10;;;;;;6099923;29;20369;-64
2022/11/24 10:05:34;;;;;;;13.70;6.93;;;12.60;64.30;;;;;;6100619;29;20076;-64
2022/11/24 10:09:17;;;;;;;15.52;6.75;;;12.60;64.30;;;;;;6100684;29;20032;-63
2022/11/24 10:12:27;;;;;;;13.25;6.13;;;12.60;64.70;;;;;;6099843;29;20036;-64
2022/11/24 10:15:54;;;;;;;11.18;5.25;;;12.60;64.50;;;;;;6098169;29;20115;-64
2022/11/24 10:19:27;;;;;;;11.63;5.43;;;12.70;64.60;;;;;;6099741;29;20111;-64
2022/11/24 10:22:49;;;;;;;25.38;5.90;;;12.80;64.40;;;;;;6098692;29;20119;-64
2022/11/24 10:25:58;;;;;;;13.38;4.78;;;12.90;64.20;;;;;;6095348;29;20171;-63
2022/11/24 10:29:09;;;;;;;21.55;7.32;;;13.10;63.90;;;;;;6111366;29;20097;-65
2022/11/24 10:32:25;;;;;;;10.40;4.68;;;13.30;63.40;;;;;;6096603;29;20043;-65
2022/11/24 10:35:49;;;;;;;9.88;5.72;;;13.30;62.40;;;;;;6080719;29;20036;-64
2022/11/24 10:39:00;;;;;;;17.27;6.00;;;13.30;62.20;;;;;;6070295;29;20047;-63
2022/11/24 10:42:04;;;;;;;15.02;6.93;;;13.40;62.10;;;;;;6090282;29;20127;-64
2022/11/24 10:45:15;;;;;;;12.88;5.85;;;13.40;62.00;;;;;;6094415;29;20459;-65
2022/11/24 10:48:26;;;;;;;18.98;6.45;;;13.50;62.10;;;;;;6098356;29;20363;-64
2022/11/24 10:51:30;;;;;;;13.40;5.85;;;13.50;62.30;;;;;;6113593;29;20028;-65
2022/11/24 10:54:34;;;;;;;13.25;5.30;;;13.60;63.40;;;;;;6112943;29;20084;-64
2022/11/24 10:57:40;;;;;;;15.65;7.18;;;13.80;62.40;;;;;;6096836;29;20345;-64
2022/11/24 11:00:41;;;;;;;18.90;6.82;;;13.90;61.80;;;;;;6096827;29;20032;-64
2022/11/24 11:03:46;;;;;;;15.73;7.32;;;14.30;61.70;;;;;;6112538;29;20044;-64
2022/11/24 11:06:47;;;;;;;14.70;6.60;;;14.70;60.70;;;;;;6105279;29;20056;-65
2022/11/24 11:09:48;;;;;;;14.68;7.22;;;15.10;59.40;;;;;;6075126;29;20045;-63
2022/11/24 11:12:49;;;;;;;17.92;7.07;;;15.50;58.50;;;;;;6073718;29;20048;-64
2022/11/24 11:15:51;;;;;;;17.88;9.10;;;15.70;57.70;;;;;;6075088;29;20044;-65
2022/11/24 11:18:52;;;;;;;18.48;9.07;;;15.90;57.20;;;;;;6082867;29;20036;-64
2022/11/24 11:22:26;;;;;;;13.10;6.75;;;16.10;57.00;;;;;;6095199;29;20066;-64
2022/11/24 11:25:32;;;;;;;18.67;7.78;;;16.30;55.90;;;;;;5983879;29;20110;-65
2022/11/24 11:28:33;;;;;;;16.15;7.95;;;16.30;55.40;;;;;;5998830;29;20197;-65
2022/11/24 11:31:36;;;;;;;16.58;7.05;;;16.40;55.60;;;;;;5985430;29;20064;-64
2022/11/24 11:34:37;;;;;;;20.48;9.18;;;16.60;54.90;;;;;;6000930;29;20478;-65
2022/11/24 11:37:37;;;;;;;14.27;8.45;;;16.80;54.50;;;;;;6002560;29;20094;-64
2022/11/24 11:40:41;;;;;;;17.27;8.98;;;17.00;53.80;;;;;;6002762;29;20038;-64
2022/11/24 11:43:44;;;;;;;20.92;8.45;;;17.10;53.60;;;;;;6003169;29;20072;-64
2022/11/24 11:46:46;;;;;;;22.52;9.60;;;17.00;53.80;;;;;;6003370;29;20064;-66
2022/11/24 11:49:48;;;;;;;18.30;8.18;;;16.70;54.20;;;;;;5987398;29;20102;-65
2022/11/24 11:52:55;;;;;;;14.23;7.78;;;16.60;54.80;;;;;;5986703;29;20432;-63
2022/11/24 11:56:19;;;;;;;22.98;9.52;;;16.40;55.10;;;;;;6001568;29;20046;-65
2022/11/24 11:59:37;;;;;;;13.88;6.18;;;16.20;55.50;;;;;;5977267;29;20039;-65
2022/11/24 12:03:15;;;;;;;12.65;6.32;;;16.20;55.70;;;;;;6080342;29;20040;-64
2022/11/24 12:06:37;;;;;;;15.15;7.70;;;16.00;55.80;;;;;;6070064;29;20040;-64
2022/11/24 12:09:40;;;;;;;12.10;6.53;;;15.80;55.80;;;;;;6090590;29;20128;-64
2022/11/24 12:12:47;;;;;;;18.35;7.05;;;15.60;56.00;;;;;;6111150;29;20098;-65
2022/11/24 12:15:55;;;;;;;15.35;7.25;;;15.50;56.40;;;;;;6111647;29;20032;-64
2022/11/24 12:19:21;;;;;;;18.90;7.25;;;15.40;56.50;;;;;;6096804;29;20040;-64
2022/11/24 12:22:49;;;;;;;12.90;6.00;;;15.30;56.60;;;;;;6097068;29;20040;-64
2022/11/24 12:26:08;;;;;;;15.50;6.00;;;15.30;56.60;;;;;;6093735;29;20078;-65
2022/11/24 12:29:08;;;;;;;;;;;15.20;56.80;;;;;;6095470;29;20056;-64
2022/11/24 12:32:21;;;;;;;15.52;7.55;;;15.10;56.80;;;;;;6079639;29;19915;-64
2022/11/24 12:35:32;;;;;;;18.05;6.90;;;15.00;57.10;;;;;;6087470;29;20049;-65
2022/11/24 12:38:35;;;;;;;11.25;6.90;;;14.90;57.30;;;;;;6099785;29;20107;-64
2022/11/24 12:42:11;;;;;;;13.30;6.10;;;14.80;57.40;;;;;;6095043;29;20335;-64
2022/11/24 12:45:21;;;;;;;12.07;5.22;;;14.70;57.40;;;;;;6072234;29;20518;-64
2022/11/24 12:48:51;;;;;;;11.95;6.13;;;14.50;57.50;;;;;;6059332;29;20148;-64
2022/11/24 12:52:01;;;;;;;13.25;6.30;;;14.50;57.90;;;;;;6056922;29;20040;-64
2022/11/24 12:55:03;;;;;;;12.13;5.72;;;14.40;58.10;;;;;;6072233;29;20055;-65
2022/11/24 12:58:18;;;;;;;9.30;5.07;;;14.40;58.10;;;;;;6056203;29;20039;-65
2022/11/24 13:01:22;;;;;;;10.32;5.43;;;14.40;58.10;;;;;;6074239;29;20431;-64
2022/11/24 13:04:32;;;;;;;16.85;5.53;;;14.30;58.00;;;;;;6040499;29;20533;-63
2022/11/24 13:07:33;;;;;;;16.23;5.13;;;14.20;58.00;;;;;;6043040;29;20068;-64
2022/11/24 13:10:37;;;;;;;11.93;4.47;;;14.20;58.30;;;;;;6059159;29;20497;-64
2022/11/24 13:14:05;;;;;;;10.80;4.53;;;14.10;58.40;;;;;;6058856;29;20417;-64
2022/11/24 13:17:33;;;;;;;7.97;3.92;;;14.10;58.60;;;;;;6058551;29;20044;-64
2022/11/24 13:20:39;;;;;;;12.10;4.63;;;14.20;58.50;;;;;;6083230;29;20142;-65
2022/11/24 13:23:39;;;;;;;15.57;3.70;;;14.20;58.40;;;;;;6099462;29;20037;-64
2022/11/24 13:26:48;;;;;;;12.05;3.83;;;14.20;58.20;;;;;;6100514;29;20379;-65
2022/11/24 13:29:53;;;;;;;12.43;6.00;;;14.20;57.90;;;;;;6099909;29;20498;-64
2022/11/24 13:33:17;;;;;;;7.70;3.38;;;14.30;57.70;;;;;;6101008;29;20044;-64
2022/11/24 13:36:23;;;;;;;7.95;4.00;;;14.20;57.50;;;;;;6102963;29;20060;-65
2022/11/24 13:39:47;;;;;;;15.20;3.58;;;14.20;57.40;;;;;;6115484;29;20116;-64
2022/11/24 13:42:57;;;;;;;12.15;2.72;;;14.20;57.20;;;;;;6099081;29;20094;-66
2022/11/24 13:45:57;;;;;;;6.82;3.15;;;14.20;57.00;;;;;;6098957;29;20489;-64
2022/11/24 13:48:59;;;;;;;13.10;2.65;;;14.20;57.10;;;;;;6098126;29;20055;-64
2022/11/24 13:52:36;;;;;;;5.93;2.08;;;14.20;57.20;;;;;;6097086;29;20071;-64
2022/11/24 13:55:40;;;;;;;6.65;1.88;;;14.20;57.20;;;;;;6092716;29;20389;-65
2022/11/24 13:58:40;;;;;;;6.90;1.80;;;14.20;56.70;;;;;;6110250;29;20044;-65
2022/11/24 14:01:43;;;;;;;4.18;1.48;;;14.30;56.40;;;;;;6097062;29;20063;-65
2022/11/24 14:04:44;;;;;;;3.75;1.30;;;14.30;56.00;;;;;;6096990;29;20369;-65
2022/11/24 14:07:48;;;;;;;2.75;1.30;;;14.30;55.50;;;;;;6097138;29;20119;-64
2022/11/24 14:10:49;;;;;;;2.38;1.02;;;14.40;55.10;;;;;;6095488;29;20049;-65
2022/11/24 14:13:50;;;;;;;6.18;2.70;;;14.40;54.80;;;;;;6097042;29;20103;-64
2022/11/24 14:17:22;;;;;;;10.77;2.58;;;14.40;54.50;;;;;;6099524;29;20126;-64
2022/11/24 14:20:25;;;;;;;8.18;2.85;;;14.40;54.50;;;;;;6108019;29;20110;-64
2022/11/24 14:23:27;;;;;;;9.85;4.68;;;14.50;54.30;;;;;;6099041;29;20028;-64
2022/11/24 14:26:34;;;;;;;17.08;4.82;;;14.50;54.60;;;;;;6097168;29;20485;-65
2022/11/24 14:29:35;;;;;;;9.68;3.65;;;14.50;54.40;;;;;;6097968;29;20050;-64
2022/11/24 14:32:38;;;;;;;11.82;3.30;;;14.50;55.10;;;;;;6083309;29;20044;-64
2022/11/24 14:35:48;;;;;;;10.52;5.25;;;14.50;54.60;;;;;;6097711;29;20036;-65
2022/11/24 14:38:51;;;;;;;7.95;4.00;;;14.50;54.90;;;;;;6097912;29;20048;-64
2022/11/24 14:42:15;;;;;;;17.33;4.60;;;14.50;55.00;;;;;;6112178;29;20068;-64
2022/11/24 14:45:17;;;;;;;11.00;4.20;;;14.60;55.20;;;;;;6097675;29;20043;-64
2022/11/24 14:48:25;;;;;;;14.32;5.85;;;14.60;55.20;;;;;;6096238;29;20054;-64
2022/11/24 14:51:29;;;;;;;10.07;2.53;;;14.70;55.50;;;;;;6095477;29;20051;-64
2022/11/24 14:54:30;;;;;;;14.80;5.10;;;14.60;55.60;;;;;;6095238;29;20032;-64
2022/11/24 14:57:34;;;;;;;12.80;4.53;;;14.60;55.70;;;;;;6095255;29;20484;-64
2022/11/24 15:00:35;;;;;;;9.00;3.65;;;14.60;55.90;;;;;;6096690;29;20036;-64
2022/11/24 15:03:36;;;;;;;16.90;4.60;;;14.60;56.10;;;;;;6097943;29;20040;-64
2022/11/24 15:06:41;;;;;;;7.22;3.25;;;14.60;56.20;;;;;;6096953;29;20044;-64
2022/11/24 15:10:01;;;;;;;13.82;3.80;;;14.60;56.30;;;;;;6096927;29;20044;-67
2022/11/24 15:13:18;;;;;;;8.25;3.00;;;14.50;56.30;;;;;;6098137;29;20311;-64
2022/11/24 15:16:20;;;;;;;6.25;3.17;;;14.50;56.40;;;;;;6099312;29;20409;-64
2022/11/24 15:19:25;;;;;;;4.97;2.00;;;14.50;56.50;;;;;;6129416;29;20111;-65
2022/11/24 15:22:48;;;;;;;5.70;2.40;;;14.40;56.60;;;;;;6097461;29;20084;-65
2022/11/24 15:25:50;;;;;;;6.18;2.88;;;14.40;56.70;;;;;;6096607;29;20166;-64
2022/11/24 15:28:51;;;;;;;6.07;2.58;;;14.30;56.80;;;;;;6096857;29;20068;-64
2022/11/24 15:31:52;;;;;;;8.93;2.75;;;14.30;56.80;;;;;;6097052;29;20483;-65
2022/11/24 15:34:53;;;;;;;10.18;3.42;;;14.20;57.00;;;;;;6084318;29;20047;-64
2022/11/24 15:37:54;;;;;;;9.93;3.33;;;14.10;57.10;;;;;;6079509;29;20037;-65
2022/11/24 15:40:58;;;;;;;13.60;4.80;;;14.00;57.30;;;;;;6094348;29;20150;-64
2022/11/24 15:43:59;;;;;;;22.70;8.38;;;14.00;57.50;;;;;;6095056;29;20095;-63
2022/11/24 15:47:00;;;;;;;10.65;4.63;;;14.00;57.70;;;;;;6094796;29;20055;-64
2022/11/24 15:50:01;;;;;;;8.48;2.65;;;13.90;57.80;;;;;;6095251;29;20032;-63